createdAt,value
2022-08-05T19:06:11.284Z,54.12
2022-08-05T19:08:45.246Z,55.08
2022-08-05T19:12:00.182Z,55.57
2022-08-05T19:15:03.034Z,55.69
2022-08-05T19:18:10.247Z,55.77
2022-08-05T19:21:12.205Z,55.51
2022-08-05T19:24:13.765Z,55.31
2022-08-05T19:27:15.296Z,55.76
2022-08-05T19:30:17.164Z,55.51
2022-08-05T19:33:33.904Z,55.38
2022-08-05T19:36:38.437Z,56.06
2022-08-05T19:39:45.522Z,55.99
2022-08-05T19:43:05.026Z,56.19
2022-08-05T19:46:16.747Z,56.59
2022-08-05T19:49:29.064Z,56.69
2022-08-05T19:52:32.387Z,56.58
2022-08-05T19:56:15.094Z,56.65
2022-08-05T19:58:55.611Z,56.70
2022-08-05T20:02:01.344Z,56.46
2022-08-05T20:05:05.096Z,56.59
2022-08-05T20:08:11.299Z,56.08
2022-08-05T20:11:12.926Z,56.13
2022-08-05T20:14:23.515Z,56.68
2022-08-05T20:17:29.265Z,56.67
2022-08-05T20:20:38.106Z,56.95
2022-08-05T20:23:50.930Z,56.79
2022-08-05T20:26:53.215Z,56.81
2022-08-05T20:29:58.569Z,56.73
2022-08-05T20:33:00.525Z,56.95
2022-08-05T20:36:02.141Z,56.90
2022-08-05T20:39:03.926Z,57.17
2022-08-05T20:42:11.560Z,57.36
2022-08-05T20:45:13.408Z,57.59
2022-08-05T20:48:16.574Z,57.36
2022-08-05T20:51:18.274Z,57.14
2022-08-05T20:54:19.794Z,57.13
2022-08-05T20:57:43.586Z,57.06
2022-08-05T21:00:54.291Z,57.07
2022-08-05T21:03:57.983Z,56.90
2022-08-05T21:07:02.694Z,57.17
2022-08-05T21:10:05.810Z,57.15
2022-08-05T21:13:11.274Z,56.92
2022-08-05T21:16:16.361Z,56.96
2022-08-05T21:19:17.852Z,56.88
2022-08-05T21:22:23.929Z,57.71
2022-08-05T21:25:25.576Z,58.21
2022-08-05T21:28:35.636Z,59.14
2022-08-05T21:31:41.361Z,60.11
2022-08-05T21:34:43.269Z,60.66
2022-08-05T21:37:53.302Z,61.57
2022-08-05T21:40:58.056Z,61.17
2022-08-05T21:44:03.665Z,61.17
2022-08-05T21:47:06.322Z,61.46
2022-08-05T21:50:27.966Z,61.35
2022-08-05T21:53:29.581Z,61.62
2022-08-05T21:56:31.085Z,62.01
2022-08-05T21:59:48.130Z,62.06
2022-08-05T22:02:54.810Z,62.79
2022-08-05T22:05:56.627Z,62.97
2022-08-05T22:08:58.609Z,63.14
2022-08-05T22:12:02.311Z,63.45
2022-08-05T22:15:16.392Z,63.35
2022-08-05T22:18:19.559Z,62.68
2022-08-05T22:21:21.212Z,62.23
2022-08-05T22:24:52.041Z,62.20
2022-08-05T22:28:10.515Z,61.76
2022-08-05T22:31:13.376Z,61.78
2022-08-05T22:34:25.425Z,61.55
2022-08-05T22:37:58.111Z,61.22
2022-08-05T22:40:55.201Z,59.96
2022-08-05T22:43:59.192Z,59.94
2022-08-05T22:47:00.685Z,59.43
2022-08-05T22:50:19.305Z,59.69
2022-08-05T22:53:24.499Z,59.56
2022-08-05T22:56:40.021Z,58.46
2022-08-05T22:59:45.781Z,58.51
2022-08-05T23:02:52.090Z,57.83
2022-08-05T23:05:55.736Z,57.94
2022-08-05T23:09:27.278Z,58.26
2022-08-05T23:12:20.335Z,57.63
2022-08-05T23:15:29.854Z,57.68
2022-08-05T23:18:36.605Z,57.66
2022-08-05T23:21:42.741Z,57.80
2022-08-05T23:24:51.225Z,57.92
2022-08-05T23:28:00.197Z,57.94
2022-08-05T23:31:15.788Z,57.95
2022-08-05T23:34:24.446Z,58.46
2022-08-05T23:37:26.827Z,58.45
2022-08-05T23:40:37.972Z,58.92
2022-08-05T23:44:05.411Z,59.12
2022-08-05T23:47:02.341Z,59.17
2022-08-05T23:50:17.114Z,59.25
2022-08-05T23:53:22.911Z,59.47
2022-08-05T23:56:27.283Z,59.76
